sensor_id;sensor_type;location;lat;lon;timestamp;P1;durP1;ratioP1;P2;durP2;ratioP2
9228;SDS011;4649;42.644;23.284;2023-04-16T06:50:15;6.03;;;4.23;;
9228;SDS011;4649;42.644;23.284;2023-04-16T06:53:03;4.93;;;4.10;;
9228;SDS011;4649;42.644;23.284;2023-04-16T06:55:30;4.53;;;3.60;;
9228;SDS011;4649;42.644;23.284;2023-04-16T06:57:57;5.53;;;5.13;;
9228;SDS011;4649;42.644;23.284;2023-04-16T07:00:24;7.13;;;4.57;;
9228;SDS011;4649;42.644;23.284;2023-04-16T07:02:51;5.43;;;4.43;;
9228;SDS011;4649;42.644;23.284;2023-04-16T07:05:20;4.67;;;4.27;;
9228;SDS011;4649;42.644;23.284;2023-04-16T07:07:46;6.17;;;5.00;;
9228;SDS011;4649;42.644;23.284;2023-04-16T07:10:13;5.23;;;4.60;;
9228;SDS011;4649;42.644;23.284;2023-04-16T07:12:40;8.17;;;5.00;;
9228;SDS011;4649;42.644;23.284;2023-04-16T07:15:08;5.47;;;4.83;;
9228;SDS011;4649;42.644;23.284;2023-04-16T07:17:35;5.27;;;4.87;;
9228;SDS011;4649;42.644;23.284;2023-04-16T07:20:02;4.20;;;3.90;;
9228;SDS011;4649;42.644;23.284;2023-04-16T07:22:31;4.93;;;4.43;;
9228;SDS011;4649;42.644;23.284;2023-04-16T07:24:58;9.17;;;5.00;;
9228;SDS011;4649;42.644;23.284;2023-04-16T07:27:25;7.50;;;5.07;;
9228;SDS011;4649;42.644;23.284;2023-04-16T07:29:51;4.90;;;4.57;;
9228;SDS011;4649;42.644;23.284;2023-04-16T07:32:20;6.30;;;5.70;;
9228;SDS011;4649;42.644;23.284;2023-04-16T07:34:48;5.13;;;4.57;;
9228;SDS011;4649;42.644;23.284;2023-04-16T07:37:15;4.47;;;4.17;;
9228;SDS011;4649;42.644;23.284;2023-04-16T07:39:43;5.13;;;4.80;;
9228;SDS011;4649;42.644;23.284;2023-04-16T07:42:11;5.30;;;4.90;;
9228;SDS011;4649;42.644;23.284;2023-04-16T07:44:38;5.00;;;4.60;;
9228;SDS011;4649;42.644;23.284;2023-04-16T07:47:05;5.17;;;4.77;;
9228;SDS011;4649;42.644;23.284;2023-04-16T07:49:31;8.43;;;6.17;;
9228;SDS011;4649;42.644;23.284;2023-04-16T07:51:58;4.97;;;4.50;;
9228;SDS011;4649;42.644;23.284;2023-04-16T07:54:25;5.70;;;4.73;;
9228;SDS011;4649;42.644;23.284;2023-04-16T07:56:53;7.60;;;4.97;;
9228;SDS011;4649;42.644;23.284;2023-04-16T07:59:20;4.57;;;4.17;;
9228;SDS011;4649;42.644;23.284;2023-04-16T08:01:47;5.37;;;4.40;;
9228;SDS011;4649;42.644;23.284;2023-04-16T08:04:14;4.43;;;4.23;;
9228;SDS011;4649;42.644;23.284;2023-04-16T08:06:46;4.63;;;3.70;;
9228;SDS011;4649;42.644;23.284;2023-04-16T08:09:13;8.67;;;3.60;;
9228;SDS011;4649;42.644;23.284;2023-04-16T08:11:40;3.57;;;2.93;;
9228;SDS011;4649;42.644;23.284;2023-04-16T08:14:08;4.97;;;2.97;;
9228;SDS011;4649;42.644;23.284;2023-04-16T08:16:35;3.27;;;3.07;;
9228;SDS011;4649;42.644;23.284;2023-04-16T08:19:02;3.20;;;3.00;;
9228;SDS011;4649;42.644;23.284;2023-04-16T08:21:29;3.87;;;2.83;;
9228;SDS011;4649;42.644;23.284;2023-04-16T08:23:56;4.13;;;3.10;;
9228;SDS011;4649;42.644;23.284;2023-04-16T08:26:23;3.13;;;2.83;;
9228;SDS011;4649;42.644;23.284;2023-04-16T08:28:50;2.10;;;2.00;;
9228;SDS011;4649;42.644;23.284;2023-04-16T08:31:18;5.20;;;2.97;;
9228;SDS011;4649;42.644;23.284;2023-04-16T08:33:45;3.07;;;2.60;;
9228;SDS011;4649;42.644;23.284;2023-04-16T08:36:12;3.03;;;2.83;;
9228;SDS011;4649;42.644;23.284;2023-04-16T08:38:38;3.20;;;2.90;;
9228;SDS011;4649;42.644;23.284;2023-04-16T08:41:05;3.30;;;3.10;;
9228;SDS011;4649;42.644;23.284;2023-04-16T08:43:37;2.83;;;2.60;;
9228;SDS011;4649;42.644;23.284;2023-04-16T08:46:05;2.77;;;2.50;;
9228;SDS011;4649;42.644;23.284;2023-04-16T08:48:35;2.53;;;2.20;;
9228;SDS011;4649;42.644;23.284;2023-04-16T08:51:02;2.90;;;2.80;;
9228;SDS011;4649;42.644;23.284;2023-04-16T08:53:34;2.90;;;2.60;;
9228;SDS011;4649;42.644;23.284;2023-04-16T08:56:08;2.70;;;2.50;;
9228;SDS011;4649;42.644;23.284;2023-04-16T08:58:37;2.90;;;2.70;;
9228;SDS011;4649;42.644;23.284;2023-04-16T09:01:04;3.07;;;2.87;;
9228;SDS011;4649;42.644;23.284;2023-04-16T09:03:35;7.50;;;3.60;;
9228;SDS011;4649;42.644;23.284;2023-04-16T09:06:03;6.73;;;3.10;;
9228;SDS011;4649;42.644;23.284;2023-04-16T09:08:32;2.90;;;2.70;;
9228;SDS011;4649;42.644;23.284;2023-04-16T09:11:00;3.53;;;3.27;;
9228;SDS011;4649;42.644;23.284;2023-04-16T09:13:27;3.70;;;3.37;;
9228;SDS011;4649;42.644;23.284;2023-04-16T09:15:56;3.90;;;3.07;;
9228;SDS011;4649;42.644;23.284;2023-04-16T09:18:23;3.43;;;3.10;;
9228;SDS011;4649;42.644;23.284;2023-04-16T09:20:53;3.70;;;3.40;;
9228;SDS011;4649;42.644;23.284;2023-04-16T09:23:21;2.50;;;2.30;;
9228;SDS011;4649;42.644;23.284;2023-04-16T09:25:49;3.07;;;2.87;;
9228;SDS011;4649;42.644;23.284;2023-04-16T09:31:08;3.27;;;2.20;;
9228;SDS011;4649;42.644;23.284;2023-04-16T09:33:35;7.90;;;2.50;;
9228;SDS011;4649;42.644;23.284;2023-04-16T09:36:04;2.87;;;2.63;;
9228;SDS011;4649;42.644;23.284;2023-04-16T09:38:47;2.53;;;2.33;;
9228;SDS011;4649;42.644;23.284;2023-04-16T09:41:15;2.47;;;2.27;;
9228;SDS011;4649;42.644;23.284;2023-04-16T09:43:48;2.53;;;2.27;;
9228;SDS011;4649;42.644;23.284;2023-04-16T09:46:20;2.70;;;2.50;;
9228;SDS011;4649;42.644;23.284;2023-04-16T09:48:46;2.10;;;2.00;;
9228;SDS011;4649;42.644;23.284;2023-04-16T09:51:14;2.27;;;2.07;;
9228;SDS011;4649;42.644;23.284;2023-04-16T09:53:41;2.00;;;1.90;;
9228;SDS011;4649;42.644;23.284;2023-04-16T09:56:08;2.97;;;1.87;;
9228;SDS011;4649;42.644;23.284;2023-04-16T09:58:35;1.53;;;1.50;;
9228;SDS011;4649;42.644;23.284;2023-04-16T10:01:04;5.03;;;1.97;;
9228;SDS011;4649;42.644;23.284;2023-04-16T10:03:33;4.50;;;1.77;;
9228;SDS011;4649;42.644;23.284;2023-04-16T10:06:05;2.00;;;1.87;;
9228;SDS011;4649;42.644;23.284;2023-04-16T10:08:35;3.17;;;1.57;;
9228;SDS011;4649;42.644;23.284;2023-04-16T10:11:02;2.97;;;2.00;;
9228;SDS011;4649;42.644;23.284;2023-04-16T10:13:29;3.40;;;1.97;;
9228;SDS011;4649;42.644;23.284;2023-04-16T10:15:57;1.93;;;1.83;;
9228;SDS011;4649;42.644;23.284;2023-04-16T10:18:24;2.50;;;1.63;;
9228;SDS011;4649;42.644;23.284;2023-04-16T10:20:52;2.40;;;2.20;;
9228;SDS011;4649;42.644;23.284;2023-04-16T10:23:20;4.17;;;2.50;;
9228;SDS011;4649;42.644;23.284;2023-04-16T10:25:49;3.13;;;2.23;;
9228;SDS011;4649;42.644;23.284;2023-04-16T10:28:15;4.87;;;2.20;;
9228;SDS011;4649;42.644;23.284;2023-04-16T10:30:43;3.17;;;2.07;;
9228;SDS011;4649;42.644;23.284;2023-04-16T10:33:17;2.33;;;2.20;;
9228;SDS011;4649;42.644;23.284;2023-04-16T10:35:46;2.67;;;1.90;;
9228;SDS011;4649;42.644;23.284;2023-04-16T10:38:23;2.50;;;2.30;;
9228;SDS011;4649;42.644;23.284;2023-04-16T10:40:58;3.97;;;2.67;;
9228;SDS011;4649;42.644;23.284;2023-04-16T10:43:27;2.07;;;1.97;;
9228;SDS011;4649;42.644;23.284;2023-04-16T10:45:54;2.23;;;2.07;;
9228;SDS011;4649;42.644;23.284;2023-04-16T10:48:22;2.40;;;2.30;;
9228;SDS011;4649;42.644;23.284;2023-04-16T10:50:53;2.73;;;2.03;;
9228;SDS011;4649;42.644;23.284;2023-04-16T10:53:22;3.73;;;2.30;;
9228;SDS011;4649;42.644;23.284;2023-04-16T10:56:01;3.80;;;2.33;;
9228;SDS011;4649;42.644;23.284;2023-04-16T10:58:37;2.57;;;2.37;;
9228;SDS011;4649;42.644;23.284;2023-04-16T11:01:09;4.40;;;2.33;;
9228;SDS011;4649;42.644;23.284;2023-04-16T11:03:45;4.70;;;2.13;;
9228;SDS011;4649;42.644;23.284;2023-04-16T11:06:12;3.53;;;2.30;;
9228;SDS011;4649;42.644;23.284;2023-04-16T11:08:43;3.07;;;2.07;;
9228;SDS011;4649;42.644;23.284;2023-04-16T11:11:12;2.43;;;2.20;;
9228;SDS011;4649;42.644;23.284;2023-04-16T11:13:41;2.73;;;2.53;;
9228;SDS011;4649;42.644;23.284;2023-04-16T11:16:09;3.60;;;2.27;;
9228;SDS011;4649;42.644;23.284;2023-04-16T11:18:36;4.13;;;2.07;;
9228;SDS011;4649;42.644;23.284;2023-04-16T11:21:06;3.03;;;1.70;;
9228;SDS011;4649;42.644;23.284;2023-04-16T11:23:43;5.53;;;2.10;;
9228;SDS011;4649;42.644;23.284;2023-04-16T11:26:19;3.07;;;2.07;;
9228;SDS011;4649;42.644;23.284;2023-04-16T11:28:48;2.17;;;2.07;;
9228;SDS011;4649;42.644;23.284;2023-04-16T11:31:15;2.40;;;2.30;;
9228;SDS011;4649;42.644;23.284;2023-04-16T11:33:42;2.90;;;1.73;;
9228;SDS011;4649;42.644;23.284;2023-04-16T11:36:09;2.73;;;1.70;;
9228;SDS011;4649;42.644;23.284;2023-04-16T11:38:36;4.90;;;2.40;;
9228;SDS011;4649;42.644;23.284;2023-04-16T11:41:05;3.93;;;2.50;;
9228;SDS011;4649;42.644;23.284;2023-04-16T11:43:33;2.80;;;2.33;;
9228;SDS011;4649;42.644;23.284;2023-04-16T11:46:01;2.33;;;2.13;;
9228;SDS011;4649;42.644;23.284;2023-04-16T11:48:44;4.10;;;2.27;;
9228;SDS011;4649;42.644;23.284;2023-04-16T11:51:12;3.57;;;2.20;;
9228;SDS011;4649;42.644;23.284;2023-04-16T11:53:44;6.27;;;2.07;;
9228;SDS011;4649;42.644;23.284;2023-04-16T11:56:14;3.30;;;1.97;;
9228;SDS011;4649;42.644;23.284;2023-04-16T11:58:43;6.27;;;2.63;;
9228;SDS011;4649;42.644;23.284;2023-04-16T12:01:10;2.23;;;2.03;;
9228;SDS011;4649;42.644;23.284;2023-04-16T12:03:38;3.27;;;2.20;;
9228;SDS011;4649;42.644;23.284;2023-04-16T12:06:08;2.37;;;2.17;;
9228;SDS011;4649;42.644;23.284;2023-04-16T12:08:35;1.97;;;1.87;;
9228;SDS011;4649;42.644;23.284;2023-04-16T12:11:01;3.23;;;1.80;;
9228;SDS011;4649;42.644;23.284;2023-04-16T12:13:28;2.47;;;1.93;;
9228;SDS011;4649;42.644;23.284;2023-04-16T12:15:57;2.20;;;2.10;;
9228;SDS011;4649;42.644;23.284;2023-04-16T12:18:24;2.73;;;2.13;;
9228;SDS011;4649;42.644;23.284;2023-04-16T12:20:51;2.90;;;2.10;;
9228;SDS011;4649;42.644;23.284;2023-04-16T12:23:21;6.20;;;2.57;;
9228;SDS011;4649;42.644;23.284;2023-04-16T12:25:49;1.93;;;1.80;;
9228;SDS011;4649;42.644;23.284;2023-04-16T12:28:25;2.17;;;1.93;;
9228;SDS011;4649;42.644;23.284;2023-04-16T12:30:53;2.33;;;2.20;;
9228;SDS011;4649;42.644;23.284;2023-04-16T12:33:21;3.70;;;1.93;;
9228;SDS011;4649;42.644;23.284;2023-04-16T12:35:48;3.50;;;1.90;;
9228;SDS011;4649;42.644;23.284;2023-04-16T12:38:15;2.90;;;2.13;;
9228;SDS011;4649;42.644;23.284;2023-04-16T12:40:42;3.43;;;2.07;;
9228;SDS011;4649;42.644;23.284;2023-04-16T12:43:09;1.83;;;1.73;;
9228;SDS011;4649;42.644;23.284;2023-04-16T12:45:36;4.10;;;3.80;;
9228;SDS011;4649;42.644;23.284;2023-04-16T12:48:05;2.53;;;1.93;;
9228;SDS011;4649;42.644;23.284;2023-04-16T12:50:33;3.17;;;1.70;;
9228;SDS011;4649;42.644;23.284;2023-04-16T12:53:00;2.30;;;2.00;;
9228;SDS011;4649;42.644;23.284;2023-04-16T12:55:27;1.50;;;1.40;;
9228;SDS011;4649;42.644;23.284;2023-04-16T12:57:53;1.93;;;1.67;;
9228;SDS011;4649;42.644;23.284;2023-04-16T13:00:20;3.00;;;2.00;;
9228;SDS011;4649;42.644;23.284;2023-04-16T13:02:47;4.17;;;1.93;;
9228;SDS011;4649;42.644;23.284;2023-04-16T13:05:14;2.83;;;1.70;;
9228;SDS011;4649;42.644;23.284;2023-04-16T13:07:44;1.93;;;1.83;;
9228;SDS011;4649;42.644;23.284;2023-04-16T13:10:11;1.87;;;1.77;;
9228;SDS011;4649;42.644;23.284;2023-04-16T13:12:38;2.40;;;2.07;;
9228;SDS011;4649;42.644;23.284;2023-04-16T13:15:05;5.83;;;2.23;;
9228;SDS011;4649;42.644;23.284;2023-04-16T13:17:33;4.10;;;2.20;;
9228;SDS011;4649;42.644;23.284;2023-04-16T13:19:59;1.60;;;1.50;;
9228;SDS011;4649;42.644;23.284;2023-04-16T13:22:27;1.60;;;1.50;;
9228;SDS011;4649;42.644;23.284;2023-04-16T20:39:50;2.50;;;2.30;;
9228;SDS011;4649;42.644;23.284;2023-04-16T20:42:23;2.10;;;1.90;;
9228;SDS011;4649;42.644;23.284;2023-04-16T20:44:56;2.50;;;2.40;;
9228;SDS011;4649;42.644;23.284;2023-04-16T20:53:47;2.30;;;2.20;;
9228;SDS011;4649;42.644;23.284;2023-04-16T21:00:03;3.43;;;3.13;;
9228;SDS011;4649;42.644;23.284;2023-04-16T21:03:18;2.53;;;1.70;;
9228;SDS011;4649;42.644;23.284;2023-04-16T21:06:40;2.70;;;2.50;;
9228;SDS011;4649;42.644;23.284;2023-04-16T21:09:27;3.43;;;2.57;;
9228;SDS011;4649;42.644;23.284;2023-04-16T21:12:13;3.73;;;2.27;;
9228;SDS011;4649;42.644;23.284;2023-04-16T21:15:09;3.17;;;2.97;;
9228;SDS011;4649;42.644;23.284;2023-04-16T21:18:21;2.30;;;2.20;;
9228;SDS011;4649;42.644;23.284;2023-04-16T21:21:05;2.73;;;2.40;;
9228;SDS011;4649;42.644;23.284;2023-04-16T21:23:36;3.27;;;1.80;;
9228;SDS011;4649;42.644;23.284;2023-04-16T21:26:23;3.30;;;2.33;;
9228;SDS011;4649;42.644;23.284;2023-04-16T21:29:04;5.10;;;2.90;;
9228;SDS011;4649;42.644;23.284;2023-04-16T21:31:33;2.00;;;2.00;;
9228;SDS011;4649;42.644;23.284;2023-04-16T21:34:39;4.50;;;2.00;;
9228;SDS011;4649;42.644;23.284;2023-04-16T21:37:57;2.93;;;2.73;;
9228;SDS011;4649;42.644;23.284;2023-04-16T21:40:37;2.33;;;2.17;;
9228;SDS011;4649;42.644;23.284;2023-04-16T21:43:49;2.23;;;2.00;;
9228;SDS011;4649;42.644;23.284;2023-04-16T21:46:23;2.20;;;1.97;;
9228;SDS011;4649;42.644;23.284;2023-04-16T21:49:00;1.90;;;1.80;;
9228;SDS011;4649;42.644;23.284;2023-04-16T21:54:55;2.93;;;2.70;;
9228;SDS011;4649;42.644;23.284;2023-04-16T21:57:36;3.13;;;2.83;;
9228;SDS011;4649;42.644;23.284;2023-04-16T22:00:23;4.60;;;2.87;;
9228;SDS011;4649;42.644;23.284;2023-04-16T22:03:25;3.67;;;3.47;;
9228;SDS011;4649;42.644;23.284;2023-04-16T22:06:05;4.00;;;3.70;;
9228;SDS011;4649;42.644;23.284;2023-04-16T22:14:36;5.03;;;4.57;;
9228;SDS011;4649;42.644;23.284;2023-04-16T22:17:21;5.23;;;4.73;;
9228;SDS011;4649;42.644;23.284;2023-04-16T22:19:57;5.27;;;4.83;;
9228;SDS011;4649;42.644;23.284;2023-04-16T22:22:38;5.07;;;4.77;;
9228;SDS011;4649;42.644;23.284;2023-04-16T22:30:56;6.97;;;5.40;;
9228;SDS011;4649;42.644;23.284;2023-04-16T22:33:40;5.87;;;5.37;;
9228;SDS011;4649;42.644;23.284;2023-04-16T22:36:22;5.87;;;5.37;;
9228;SDS011;4649;42.644;23.284;2023-04-16T22:38:54;5.90;;;5.40;;
9228;SDS011;4649;42.644;23.284;2023-04-16T22:41:35;6.37;;;5.90;;
9228;SDS011;4649;42.644;23.284;2023-04-16T22:44:18;6.53;;;6.07;;
9228;SDS011;4649;42.644;23.284;2023-04-16T22:47:00;6.97;;;6.47;;
9228;SDS011;4649;42.644;23.284;2023-04-16T22:49:46;7.90;;;6.13;;
9228;SDS011;4649;42.644;23.284;2023-04-16T22:52:29;8.97;;;5.63;;
9228;SDS011;4649;42.644;23.284;2023-04-16T22:55:06;5.60;;;5.20;;
9228;SDS011;4649;42.644;23.284;2023-04-16T22:58:18;7.93;;;5.63;;
9228;SDS011;4649;42.644;23.284;2023-04-16T23:01:00;7.20;;;6.60;;
9228;SDS011;4649;42.644;23.284;2023-04-16T23:03:31;6.57;;;6.17;;
9228;SDS011;4649;42.644;23.284;2023-04-16T23:06:07;6.53;;;6.13;;
9228;SDS011;4649;42.644;23.284;2023-04-16T23:08:35;6.90;;;6.40;;
9228;SDS011;4649;42.644;23.284;2023-04-16T23:11:09;7.03;;;6.53;;
9228;SDS011;4649;42.644;23.284;2023-04-16T23:13:47;6.90;;;6.20;;
9228;SDS011;4649;42.644;23.284;2023-04-16T23:16:21;7.10;;;6.03;;
9228;SDS011;4649;42.644;23.284;2023-04-16T23:21:23;6.33;;;5.43;;
9228;SDS011;4649;42.644;23.284;2023-04-16T23:26:28;5.90;;;4.77;;
9228;SDS011;4649;42.644;23.284;2023-04-16T23:29:07;7.50;;;4.87;;
9228;SDS011;4649;42.644;23.284;2023-04-16T23:31:39;4.50;;;4.10;;
9228;SDS011;4649;42.644;23.284;2023-04-16T23:34:14;4.37;;;4.07;;
9228;SDS011;4649;42.644;23.284;2023-04-16T23:36:55;4.00;;;3.80;;
9228;SDS011;4649;42.644;23.284;2023-04-16T23:39:31;3.73;;;3.43;;
9228;SDS011;4649;42.644;23.284;2023-04-16T23:42:13;4.10;;;3.83;;
9228;SDS011;4649;42.644;23.284;2023-04-16T23:47:59;8.10;;;4.20;;
9228;SDS011;4649;42.644;23.284;2023-04-16T23:50:29;3.60;;;3.40;;
9228;SDS011;4649;42.644;23.284;2023-04-16T23:53:27;3.23;;;3.03;;
9228;SDS011;4649;42.644;23.284;2023-04-16T23:56:01;4.07;;;2.70;;
9228;SDS011;4649;42.644;23.284;2023-04-16T23:58:37;3.10;;;2.90;;
